Time;durP1;ratioP1;P1;durP2;ratioP2;P2;SDS_P1;SDS_P2;PMS_P1;PMS_P2;Temp;Humidity;BMP_temperature;BMP_pressure;BME280_temperature;BME280_humidity;BME280_pressure;Samples;Min_cycle;Max_cycle;Signal;HPM_P1;HPM_P2
2023/08/19 00:00:59;;;;;;;;;;;;;;;25.22;50.61;100932.84;7399368;19;1177;-37
2023/08/19 00:03:27;;;;;;;;;;;;;;;25.19;50.88;100927.78;7396269;19;1375;-38
2023/08/19 00:05:56;;;;;;;;;;;;;;;25.15;50.98;100931.84;7398828;19;1413;-38
2023/08/19 00:08:27;;;;;;;;;;;;;;;25.18;51.10;100931.47;7400321;19;1113;-38
2023/08/19 00:10:55;;;;;;;;;;;;;;;25.10;51.17;100926.09;7398705;19;1588;-37
2023/08/19 00:13:23;;;;;;;;;;;;;;;25.18;51.53;100926.06;7398587;19;1860;-37
2023/08/19 00:15:52;;;;;;;;;;;;;;;25.25;51.22;100932.53;7398559;19;1418;-38
2023/08/19 00:18:20;;;;;;;;;;;;;;;25.25;51.62;100943.34;7399983;19;1408;-37
2023/08/19 00:20:49;;;;;;;;;;;;;;;25.27;51.13;100940.44;7397689;19;1428;-37
2023/08/19 00:23:18;;;;;;;;;;;;;;;25.17;51.54;100946.03;7398179;19;1484;-38
2023/08/19 00:25:49;;;;;;;;;;;;;;;25.20;50.70;100945.69;7398616;19;1170;-38
2023/08/19 00:28:17;;;;;;;;;;;;;;;25.23;50.68;100945.38;7398203;19;1397;-38
2023/08/19 00:30:45;;;;;;;;;;;;;;;25.21;50.88;100947.38;7398077;19;1673;-37
2023/08/19 00:33:14;;;;;;;;;;;;;;;25.13;51.19;100942.00;7398441;19;1845;-37
2023/08/19 00:35:42;;;;;;;;;;;;;;;25.10;51.33;100958.56;7399102;19;1253;-38
2023/08/19 00:38:10;;;;;;;;;;;;;;;25.08;51.44;100953.31;7398689;19;1858;-38
2023/08/19 00:40:39;;;;;;;;;;;;;;;25.18;51.49;100953.13;7397607;19;1604;-38
2023/08/19 00:43:10;;;;;;;;;;;;;;;25.15;51.04;100943.50;7397292;19;1345;-38
2023/08/19 00:45:39;;;;;;;;;;;;;;;25.20;50.72;100948.38;7397385;19;1397;-37
2023/08/19 00:48:08;;;;;;;;;;;;;;;25.07;51.76;100946.22;7397481;19;1372;-38
2023/08/19 00:50:37;;;;;;;;;;;;;;;25.13;51.39;100947.41;7397922;19;1465;-38
2023/08/19 00:53:06;;;;;;;;;;;;;;;25.18;51.43;100942.31;7397628;19;1380;-38
2023/08/19 00:55:34;;;;;;;;;;;;;;;25.02;51.85;100937.75;7395463;19;1853;-38
2023/08/19 00:58:03;;;;;;;;;;;;;;;25.17;51.37;100940.63;7398049;19;1240;-37
2023/08/19 01:00:35;;;;;;;;;;;;;;;25.20;51.53;100940.28;7398663;19;1106;-38
2023/08/19 01:03:04;;;;;;;;;;;;;;;25.17;51.41;100941.47;7398702;19;1467;-38
2023/08/19 01:05:39;;;;;;;;;;;;;;;25.14;51.68;100955.31;7398728;19;1356;-38
2023/08/19 01:08:11;;;;;;;;;;;;;;;25.14;53.07;100968.03;7396405;19;1753;-38
2023/08/19 01:10:44;;;;;;;;;;;;;;;25.19;51.65;100955.66;7397676;19;1419;-37
2023/08/19 01:13:14;;;;;;;;;;;;;;;25.12;52.29;100954.66;7397922;19;1547;-38
2023/08/19 01:15:50;;;;;;;;;;;;;;;25.12;51.35;100946.53;7394657;19;1844;-38
2023/08/19 01:18:19;;;;;;;;;;;;;;;25.04;51.39;100933.03;7396778;19;1258;-42
2023/08/19 01:20:48;;;;;;;;;;;;;;;25.15;51.52;100931.84;7397191;19;1404;-38
2023/08/19 01:23:18;;;;;;;;;;;;;;;25.14;53.78;100940.97;7397636;19;1459;-38
2023/08/19 01:25:49;;;;;;;;;;;;;;;25.15;53.96;100948.09;7395084;19;1417;-38
2023/08/19 01:28:21;;;;;;;;;;;;;;;25.15;54.09;100956.19;7395484;19;1409;-37
2023/08/19 01:30:49;;;;;;;;;;;;;;;25.14;53.41;100952.63;7396667;19;1284;-38
2023/08/19 01:33:18;;;;;;;;;;;;;;;25.01;52.03;100941.50;7395742;19;1253;-37
2023/08/19 01:35:52;;;;;;;;;;;;;;;24.98;51.66;100944.53;7395288;19;1854;-38
2023/08/19 01:38:22;;;;;;;;;;;;;;;25.01;51.53;100949.63;7397784;19;1054;-42
2023/08/19 01:40:54;;;;;;;;;;;;;;;24.96;51.68;100955.53;7397008;19;1362;-37
2023/08/19 01:43:23;;;;;;;;;;;;;;;25.05;51.61;100960.91;7396755;19;1593;-38
2023/08/19 01:45:51;;;;;;;;;;;;;;;25.04;51.24;100960.09;7395466;19;1364;-38
2023/08/19 01:48:20;;;;;;;;;;;;;;;24.99;51.12;100952.50;7395919;19;1162;-38
2023/08/19 01:50:48;;;;;;;;;;;;;;;24.97;51.04;100950.97;7394952;19;1331;-37
2023/08/19 01:53:16;;;;;;;;;;;;;;;24.85;51.84;100950.47;7393274;19;1473;-37
2023/08/19 01:55:44;;;;;;;;;;;;;;;24.97;53.89;100953.69;7393561;19;1857;-38
2023/08/19 01:58:15;;;;;;;;;;;;;;;24.99;53.87;100976.84;7395060;19;1174;-38
2023/08/19 02:00:43;;;;;;;;;;;;;;;25.01;53.77;100973.97;7396089;19;1337;-38
2023/08/19 02:03:12;;;;;;;;;;;;;;;24.95;52.23;100969.25;7394287;19;1420;-38
2023/08/19 02:05:40;;;;;;;;;;;;;;;24.95;51.63;100980.06;7394810;19;1289;-38
2023/08/19 02:08:08;;;;;;;;;;;;;;;24.93;51.58;100977.53;7394631;19;1701;-38
2023/08/19 02:10:37;;;;;;;;;;;;;;;24.93;51.49;100972.13;7395022;19;1388;-38
2023/08/19 02:13:05;;;;;;;;;;;;;;;24.92;51.59;100974.97;7395588;19;1209;-39
2023/08/19 02:15:36;;;;;;;;;;;;;;;24.93;51.83;100976.66;7394304;19;1834;-38
2023/08/19 02:18:04;;;;;;;;;;;;;;;24.97;51.28;100970.75;7394931;19;1713;-38
2023/08/19 02:20:33;;;;;;;;;;;;;;;24.99;51.99;100976.84;7395430;19;1273;-37
2023/08/19 02:23:02;;;;;;;;;;;;;;;24.91;52.19;100966.03;7393515;19;1401;-38
2023/08/19 02:25:30;;;;;;;;;;;;;;;24.97;52.06;100973.47;7395286;19;1408;-37
2023/08/19 02:27:58;;;;;;;;;;;;;;;24.93;51.57;100965.84;7394520;19;1321;-38
2023/08/19 02:30:27;;;;;;;;;;;;;;;24.92;51.31;100975.81;7393873;19;3024;-38
2023/08/19 02:32:58;;;;;;;;;;;;;;;24.87;50.92;100975.50;7394917;19;1110;-38
2023/08/19 02:35:26;;;;;;;;;;;;;;;24.89;51.43;100978.88;7393321;19;1849;-38
2023/08/19 02:37:54;;;;;;;;;;;;;;;24.88;51.18;100984.44;7397672;19;1467;-38
2023/08/19 02:40:23;;;;;;;;;;;;;;;24.83;51.27;100974.16;7402891;19;1337;-38
2023/08/19 02:42:51;;;;;;;;;;;;;;;24.79;51.50;100972.78;7402398;19;1279;-38
2023/08/19 02:45:19;;;;;;;;;;;;;;;24.76;51.78;100986.63;7400690;19;1445;-37
2023/08/19 02:47:47;;;;;;;;;;;;;;;24.88;52.04;101001.53;7401858;19;1299;-38
2023/08/19 02:50:18;;;;;;;;;;;;;;;24.91;51.64;100998.50;7401425;19;1247;-38
2023/08/19 02:52:47;;;;;;;;;;;;;;;24.88;52.18;101003.38;7401204;19;1335;-38
2023/08/19 02:55:15;;;;;;;;;;;;;;;24.83;51.45;101003.91;7400359;19;1865;-38
2023/08/19 02:57:43;;;;;;;;;;;;;;;24.87;51.06;101004.38;7399945;19;1108;-38
2023/08/19 03:00:12;;;;;;;;;;;;;;;24.88;51.08;100995.28;7401477;19;1811;-37
2023/08/19 03:02:40;;;;;;;;;;;;;;;24.84;50.78;100986.63;7401742;19;1507;-37
2023/08/19 03:05:09;;;;;;;;;;;;;;;24.77;51.11;100982.91;7402000;19;1452;-37
2023/08/19 03:07:40;;;;;;;;;;;;;;;24.78;50.88;100957.56;7400849;19;1361;-38
2023/08/19 03:10:09;;;;;;;;;;;;;;;24.78;51.19;100949.44;7401024;19;1537;-38
2023/08/19 03:12:37;;;;;;;;;;;;;;;24.79;50.93;100946.59;7401087;19;1396;-38
2023/08/19 03:15:06;;;;;;;;;;;;;;;24.67;51.83;100942.53;7398826;19;1865;-37
2023/08/19 03:17:34;;;;;;;;;;;;;;;24.78;52.67;100974.63;7400635;19;1833;-38
2023/08/19 03:20:03;;;;;;;;;;;;;;;24.78;53.86;100984.63;7401062;19;1471;-37
2023/08/19 03:22:31;;;;;;;;;;;;;;;24.77;53.65;100999.13;7401843;19;1297;-38
2023/08/19 03:25:02;;;;;;;;;;;;;;;24.82;53.18;101002.19;7401315;19;1305;-38
2023/08/19 03:27:31;;;;;;;;;;;;;;;24.80;51.87;101006.94;7400203;19;1316;-38
2023/08/19 03:29:59;;;;;;;;;;;;;;;24.71;51.60;100999.81;7399554;19;1356;-38
2023/08/19 03:32:27;;;;;;;;;;;;;;;24.63;51.59;101016.03;7400788;19;1373;-37
2023/08/19 03:34:55;;;;;;;;;;;;;;;24.73;52.64;101030.22;7399522;19;1830;-38
2023/08/19 03:37:24;;;;;;;;;;;;;;;24.74;51.94;101031.94;7400234;19;1500;-37
2023/08/19 03:39:52;;;;;;;;;;;;;;;24.56;51.82;101018.56;7399964;19;1209;-37
2023/08/19 03:42:24;;;;;;;;;;;;;;;24.42;52.13;100995.69;7396919;19;1249;-37
2023/08/19 03:44:53;;;;;;;;;;;;;;;24.44;52.11;100990.13;7399532;19;1333;-37
2023/08/19 03:47:21;;;;;;;;;;;;;;;24.44;52.33;101018.00;7400638;19;1342;-37
2023/08/19 03:49:49;;;;;;;;;;;;;;;24.59;53.12;101019.09;7398263;19;1399;-37
2023/08/19 03:52:18;;;;;;;;;;;;;;;24.71;53.43;101026.84;7400034;19;1792;-37
2023/08/19 03:54:46;;;;;;;;;;;;;;;24.72;52.28;101031.25;7398925;19;1844;-37
2023/08/19 03:57:14;;;;;;;;;;;;;;;24.70;51.90;101022.47;7398343;19;1384;-37
2023/08/19 03:59:45;;;;;;;;;;;;;;;24.67;51.75;101028.19;7398844;19;1428;-38
2023/08/19 04:02:13;;;;;;;;;;;;;;;24.68;51.67;101032.63;7400201;19;1316;-37
2023/08/19 04:04:58;;;;;;;;;;;;;;;24.75;51.52;101034.50;7399939;19;1838;-38
2023/08/19 04:07:26;;;;;;;;;;;;;;;24.77;51.30;101042.41;7398938;19;1662;-37
2023/08/19 04:09:55;;;;;;;;;;;;;;;24.71;52.10;101040.38;7399384;19;1471;-38
2023/08/19 04:12:23;;;;;;;;;;;;;;;24.65;51.87;101035.63;7399256;19;1291;-37
2023/08/19 04:14:54;;;;;;;;;;;;;;;24.59;52.08;101043.41;7398570;19;1823;-37
2023/08/19 04:17:23;;;;;;;;;;;;;;;24.75;51.64;101055.25;7399545;19;1401;-37
2023/08/19 04:19:51;;;;;;;;;;;;;;;24.67;52.30;101047.13;7398220;19;1372;-38
2023/08/19 04:22:19;;;;;;;;;;;;;;;24.83;51.90;101054.41;7400080;19;1447;-37
2023/08/19 04:24:51;;;;;;;;;;;;;;;24.92;51.45;101046.16;7398301;19;1766;-38
2023/08/19 04:27:21;;;;;;;;;;;;;;;24.92;51.45;101040.75;7396962;19;1328;-38
2023/08/19 04:29:50;;;;;;;;;;;;;;;24.91;51.42;101033.66;7396118;19;1311;-38
2023/08/19 04:32:21;;;;;;;;;;;;;;;25.13;51.32;101042.97;7396331;19;1472;-38
2023/08/19 04:34:49;;;;;;;;;;;;;;;25.67;50.96;101050.53;7395764;19;1851;-38
2023/08/19 04:37:17;;;;;;;;;;;;;;;25.69;50.39;101032.25;7396275;19;1225;-38
2023/08/19 04:39:45;;;;;;;;;;;;;;;25.22;50.67;101022.16;7395375;19;1301;-37
2023/08/19 04:42:14;;;;;;;;;;;;;;;25.00;51.26;101021.81;7397073;19;1266;-37
2023/08/19 04:44:42;;;;;;;;;;;;;;;24.91;51.34;101039.06;7392884;19;1315;-38
2023/08/19 04:47:11;;;;;;;;;;;;;;;24.88;51.53;101031.28;7395272;19;1336;-38
2023/08/19 04:49:42;;;;;;;;;;;;;;;25.00;51.79;101027.22;7394750;19;1247;-38
2023/08/19 04:52:11;;;;;;;;;;;;;;;24.95;52.66;101028.75;7397380;19;1503;-37
2023/08/19 04:54:39;;;;;;;;;;;;;;;25.08;52.85;101022.81;7395991;19;1849;-38
2023/08/19 04:57:07;;;;;;;;;;;;;;;25.15;51.64;101021.16;7396360;19;1397;-37
2023/08/19 04:59:36;;;;;;;;;;;;;;;25.13;51.18;101029.44;7393917;19;1376;-38
2023/08/19 05:02:04;;;;;;;;;;;;;;;25.01;51.57;101023.50;7389821;19;1697;-37
2023/08/19 05:04:33;;;;;;;;;;;;;;;25.02;51.32;101005.41;7395421;19;1371;-37
2023/08/19 05:07:04;;;;;;;;;;;;;;;25.10;51.33;101015.38;7396018;19;1392;-37
2023/08/19 05:09:32;;;;;;;;;;;;;;;25.25;51.96;101015.56;7396580;19;1666;-38
2023/08/19 05:12:00;;;;;;;;;;;;;;;25.28;51.84;101036.88;7394565;19;1380;-38
2023/08/19 05:14:29;;;;;;;;;;;;;;;25.36;51.71;101032.28;7394359;19;1626;-38
2023/08/19 05:16:57;;;;;;;;;;;;;;;25.37;52.67;101030.47;7394467;19;1851;-42
2023/08/19 05:19:25;;;;;;;;;;;;;;;25.43;52.57;101028.91;7395193;19;1433;-37
2023/08/19 05:21:54;;;;;;;;;;;;;;;25.51;52.06;101004.53;7393777;19;1488;-37
2023/08/19 05:24:24;;;;;;;;;;;;;;;25.45;53.41;101007.94;7395555;19;1309;-37
2023/08/19 05:26:53;;;;;;;;;;;;;;;25.50;52.47;101010.97;7395217;19;1476;-37
2023/08/19 05:29:21;;;;;;;;;;;;;;;25.53;53.17;100999.78;7394441;19;1773;-37
2023/08/19 05:31:49;;;;;;;;;;;;;;;25.62;52.70;101004.16;7393459;19;1501;-37
2023/08/19 05:34:17;;;;;;;;;;;;;;;25.68;53.87;100991.78;7395905;19;1298;-37
2023/08/19 05:36:46;;;;;;;;;;;;;;;25.46;54.61;100993.38;7392876;19;1848;-37
2023/08/19 05:39:14;;;;;;;;;;;;;;;25.47;54.78;100986.97;7396168;19;1345;-37
2023/08/19 05:41:45;;;;;;;;;;;;;;;25.47;54.90;101011.31;7394833;19;1299;-38
2023/08/19 05:44:14;;;;;;;;;;;;;;;25.45;54.92;101011.50;7395438;19;1732;-37
2023/08/19 05:46:42;;;;;;;;;;;;;;;25.43;55.24;101001.81;7390638;19;1753;-38
2023/08/19 05:49:10;;;;;;;;;;;;;;;25.43;55.54;101004.53;7388638;19;1295;-37
2023/08/19 05:51:39;;;;;;;;;;;;;;;25.50;55.16;100986.59;7388990;19;1370;-37
2023/08/19 05:54:08;;;;;;;;;;;;;;;25.48;54.92;100983.22;7388028;19;1331;-38
2023/08/19 05:56:36;;;;;;;;;;;;;;;25.37;55.53;100993.41;7386761;19;1849;-38
2023/08/19 05:59:07;;;;;;;;;;;;;;;25.40;55.25;100984.91;7389912;19;1432;-38
2023/08/19 06:01:35;;;;;;;;;;;;;;;25.43;55.26;100988.28;7390902;19;1103;-38
2023/08/19 06:04:04;;;;;;;;;;;;;;;25.34;55.17;100992.88;7391590;19;1670;-38
2023/08/19 06:06:32;;;;;;;;;;;;;;;25.33;55.28;100977.69;7389673;19;1242;-37
2023/08/19 06:09:00;;;;;;;;;;;;;;;25.35;55.34;100976.47;7390651;19;1439;-37
2023/08/19 06:11:28;;;;;;;;;;;;;;;25.22;55.70;100992.41;7390001;19;1430;-38
2023/08/19 06:13:58;;;;;;;;;;;;;;;25.36;54.65;100983.56;7396329;19;1955;-38
2023/08/19 06:16:29;;;;;;;;;;;;;;;25.33;55.08;100999.34;7393076;19;1853;-37
2023/08/19 06:18:57;;;;;;;;;;;;;;;25.43;54.84;101005.41;7396520;19;1651;-38
2023/08/19 06:21:25;;;;;;;;;;;;;;;25.47;54.73;101008.63;7397524;19;1268;-37
2023/08/19 06:23:54;;;;;;;;;;;;;;;25.39;55.44;101017.59;7398238;19;1264;-38
2023/08/19 06:26:22;;;;;;;;;;;;;;;25.44;55.23;101011.66;7401619;19;1182;-37
2023/08/19 06:28:51;;;;;;;;;;;;;;;25.35;55.34;100998.13;7401237;19;1341;-37
2023/08/19 06:31:20;;;;;;;;;;;;;;;25.34;55.60;101011.84;7401608;19;1369;-38
2023/08/19 06:33:52;;;;;;;;;;;;;;;25.36;55.28;100998.97;7400962;19;1276;-38
2023/08/19 06:36:24;;;;;;;;;;;;;;;25.34;55.18;100988.31;7397961;19;1857;-38
2023/08/19 06:38:57;;;;;;;;;;;;;;;25.43;55.16;100996.41;7401548;19;1401;-38
2023/08/19 06:41:26;;;;;;;;;;;;;;;25.46;54.74;100990.66;7401605;19;1336;-38
2023/08/19 06:43:54;;;;;;;;;;;;;;;25.42;54.48;100994.75;7400400;19;1361;-38
2023/08/19 06:46:23;;;;;;;;;;;;;;;25.38;54.88;100994.22;7401154;19;1711;-38
2023/08/19 06:48:54;;;;;;;;;;;;;;;25.53;54.30;101002.50;7401592;19;1328;-37
2023/08/19 06:51:22;;;;;;;;;;;;;;;25.53;54.32;101010.63;7401784;19;1384;-38
2023/08/19 06:53:51;;;;;;;;;;;;;;;25.59;54.27;101005.34;7402104;19;1416;-37
2023/08/19 06:56:22;;;;;;;;;;;;;;;25.58;54.02;100991.97;7399250;19;1875;-38
2023/08/19 06:58:54;;;;;;;;;;;;;;;25.67;53.85;100980.13;7401687;19;1261;-37
2023/08/19 07:01:24;;;;;;;;;;;;;;;25.62;53.96;100976.22;7401264;19;1150;-37
2023/08/19 07:03:56;;;;;;;;;;;;;;;25.58;53.92;100981.16;7402140;19;1440;-37
2023/08/19 07:06:24;;;;;;;;;;;;;;;25.58;54.17;100964.91;7401186;19;1424;-37
2023/08/19 07:08:53;;;;;;;;;;;;;;;25.63;53.75;100967.94;7401086;19;1396;-37
2023/08/19 07:11:21;;;;;;;;;;;;;;;25.56;54.31;100978.59;7400551;19;1808;-37
2023/08/19 07:13:50;;;;;;;;;;;;;;;25.64;53.79;100985.03;7393286;19;1312;-38
2023/08/19 07:16:20;;;;;;;;;;;;;;;25.60;54.12;100970.97;7390338;19;1851;-38
2023/08/19 07:18:50;;;;;;;;;;;;;;;25.56;54.18;100983.19;7399037;19;1869;-38
2023/08/19 07:21:21;;;;;;;;;;;;;;;25.54;53.59;100987.94;7399497;19;1408;-38
2023/08/19 07:23:50;;;;;;;;;;;;;;;25.64;53.55;100996.69;7394466;19;1472;-38
2023/08/19 07:26:19;;;;;;;;;;;;;;;25.54;54.05;100993.34;7396945;19;1233;-38
2023/08/19 07:28:48;;;;;;;;;;;;;;;25.48;53.88;100991.34;7396934;19;1577;-38
2023/08/19 07:31:17;;;;;;;;;;;;;;;25.47;53.89;101016.75;7397565;19;992;-38
2023/08/19 07:33:45;;;;;;;;;;;;;;;25.38;53.91;101011.31;7397075;19;1235;-38
2023/08/19 07:36:14;;;;;;;;;;;;;;;25.44;53.51;101025.19;7395836;19;1841;-38
2023/08/19 07:38:46;;;;;;;;;;;;;;;25.45;53.71;101018.78;7397609;19;1593;-38
2023/08/19 07:41:15;;;;;;;;;;;;;;;25.53;53.26;101006.06;7400313;19;1668;-38
2023/08/19 07:43:44;;;;;;;;;;;;;;;25.58;52.85;101013.66;7400681;19;1564;-38
2023/08/19 07:46:14;;;;;;;;;;;;;;;25.54;53.07;101001.47;7398877;19;1671;-38
2023/08/19 07:48:42;;;;;;;;;;;;;;;25.50;52.50;101010.97;7399930;19;1237;-38
2023/08/19 07:51:11;;;;;;;;;;;;;;;25.56;52.72;101004.84;7399529;19;1397;-38
2023/08/19 07:53:39;;;;;;;;;;;;;;;25.44;52.88;100995.41;7399333;19;1279;-38
2023/08/19 07:56:10;;;;;;;;;;;;;;;25.47;52.67;101011.31;7398893;19;1851;-38
2023/08/19 07:58:39;;;;;;;;;;;;;;;25.45;52.42;101003.38;7398788;19;1456;-38
2023/08/19 08:01:07;;;;;;;;;;;;;;;25.47;52.99;101006.75;7399977;19;1170;-38
2023/08/19 08:03:38;;;;;;;;;;;;;;;25.54;52.61;101010.44;7397583;19;1392;-38
2023/08/19 08:06:07;;;;;;;;;;;;;;;25.61;52.54;101002.47;7399647;19;1190;-38
2023/08/19 08:08:35;;;;;;;;;;;;;;;25.59;52.67;100994.53;7399149;19;1268;-38
2023/08/19 08:11:03;;;;;;;;;;;;;;;25.69;52.01;101012.44;7398240;19;1385;-38
2023/08/19 08:13:34;;;;;;;;;;;;;;;25.76;52.16;101002.59;7399138;19;1344;-38
2023/08/19 08:16:02;;;;;;;;;;;;;;;25.87;51.60;101006.81;7398518;19;1858;-38
2023/08/19 08:18:31;;;;;;;;;;;;;;;25.96;50.85;101006.63;7398963;19;1399;-38
2023/08/19 08:20:59;;;;;;;;;;;;;;;25.94;51.14;101003.25;7400301;19;1126;-38
2023/08/19 08:23:27;;;;;;;;;;;;;;;25.98;51.31;100998.28;7397966;19;1285;-38
2023/08/19 08:25:56;;;;;;;;;;;;;;;25.99;50.53;100997.28;7398650;19;1055;-38
2023/08/19 08:28:24;;;;;;;;;;;;;;;26.02;50.38;100988.78;7398978;19;1028;-38
2023/08/19 08:30:55;;;;;;;;;;;;;;;26.03;50.76;100986.94;7398768;19;1401;-38
2023/08/19 08:33:25;;;;;;;;;;;;;;;26.05;50.78;101003.88;7399723;19;1459;-38
2023/08/19 08:35:54;;;;;;;;;;;;;;;26.12;50.31;100994.88;7399197;19;1859;-38
2023/08/19 08:38:22;;;;;;;;;;;;;;;26.10;49.99;101007.75;7398714;19;1848;-38
2023/08/19 08:40:50;;;;;;;;;;;;;;;26.24;49.98;101005.28;7399246;19;1706;-38
2023/08/19 08:43:19;;;;;;;;;;;;;;;26.14;49.85;101002.78;7398760;19;1782;-38
2023/08/19 08:45:47;;;;;;;;;;;;;;;26.13;49.71;101006.53;7399752;19;1007;-38
2023/08/19 08:48:19;;;;;;;;;;;;;;;26.18;49.33;100991.44;7398730;19;1459;-38
2023/08/19 08:50:47;;;;;;;;;;;;;;;26.14;49.17;101003.66;7397957;19;1694;-38
2023/08/19 08:53:16;;;;;;;;;;;;;;;26.16;49.24;100998.91;7395993;19;1679;-38
2023/08/19 08:55:44;;;;;;;;;;;;;;;26.27;49.63;100991.38;7397757;19;1448;-38
2023/08/19 08:58:12;;;;;;;;;;;;;;;25.68;48.16;100975.53;7396800;19;1849;-38
2023/08/19 09:00:41;;;;;;;;;;;;;;;25.31;49.09;100995.94;7398923;19;1122;-37
2023/08/19 09:03:10;;;;;;;;;;;;;;;24.96;47.70;100988.00;7397129;19;1381;-38
2023/08/19 09:05:41;;;;;;;;;;;;;;;24.96;47.77;100987.16;7398337;19;1265;-37
2023/08/19 09:08:10;;;;;;;;;;;;;;;24.70;48.11;100992.72;7397193;19;1212;-38
2023/08/19 09:10:38;;;;;;;;;;;;;;;24.71;48.23;101005.22;7397495;19;1810;-38
2023/08/19 09:13:07;;;;;;;;;;;;;;;24.72;47.63;100991.53;7397700;19;1317;-38
2023/08/19 09:15:35;;;;;;;;;;;;;;;24.53;46.35;101000.81;7397610;19;1577;-38
2023/08/19 09:18:04;;;;;;;;;;;;;;;24.65;47.18;101000.47;7394987;19;1849;-38
2023/08/19 09:20:34;;;;;;;;;;;;;;;24.90;47.67;100994.06;7396493;19;1855;-38
2023/08/19 09:23:09;;;;;;;;;;;;;;;25.01;48.09;100992.91;7396435;19;1563;-38
2023/08/19 09:25:39;;;;;;;;;;;;;;;25.20;48.61;100983.56;7398879;19;946;-38
2023/08/19 09:28:07;;;;;;;;;;;;;;;25.19;51.10;100977.31;7395292;19;1605;-38
2023/08/19 09:30:36;;;;;;;;;;;;;;;25.16;51.95;100987.63;7397497;19;1493;-38
2023/08/19 09:33:05;;;;;;;;;;;;;;;24.85;52.88;100982.06;7396891;19;1584;-38
2023/08/19 09:35:37;;;;;;;;;;;;;;;24.35;52.85;100981.13;7397239;19;1391;-38
2023/08/19 09:38:06;;;;;;;;;;;;;;;24.12;52.81;100964.72;7394133;19;1858;-38
2023/08/19 09:40:37;;;;;;;;;;;;;;;23.92;53.54;100983.06;7396627;19;1377;-38
2023/08/19 09:43:07;;;;;;;;;;;;;;;23.99;53.85;100979.53;7396002;19;1420;-38
2023/08/19 09:45:35;;;;;;;;;;;;;;;23.85;54.74;100968.50;7393170;19;1289;-38
2023/08/19 09:48:03;;;;;;;;;;;;;;;23.82;55.07;100977.78;7393001;19;1202;-38
2023/08/19 09:50:32;;;;;;;;;;;;;;;23.81;55.54;100959.88;7395303;19;1523;-38
2023/08/19 09:53:01;;;;;;;;;;;;;;;23.86;55.70;100962.09;7395263;19;1386;-38
2023/08/19 09:55:30;;;;;;;;;;;;;;;23.67;56.20;100958.59;7395891;19;1213;-38
2023/08/19 09:58:01;;;;;;;;;;;;;;;23.63;56.14;100981.53;7394628;19;1859;-38
2023/08/19 10:00:29;;;;;;;;;;;;;;;23.71;56.46;100968.06;7393932;19;1604;-38
2023/08/19 10:02:58;;;;;;;;;;;;;;;23.66;57.02;100962.31;7393736;19;1971;-38
2023/08/19 10:05:28;;;;;;;;;;;;;;;23.74;56.73;100959.66;7394289;19;1388;-38
2023/08/19 10:08:01;;;;;;;;;;;;;;;23.81;56.82;100971.53;7394946;19;1213;-38
2023/08/19 10:10:32;;;;;;;;;;;;;;;23.72;56.95;100950.03;7394743;19;1465;-38
2023/08/19 10:13:03;;;;;;;;;;;;;;;23.75;57.09;100964.03;7395494;19;1145;-38
2023/08/19 10:15:34;;;;;;;;;;;;;;;23.72;57.77;100950.88;7395435;19;1216;-38
2023/08/19 10:18:05;;;;;;;;;;;;;;;23.58;58.35;100946.94;7393426;19;1846;-38
2023/08/19 10:20:35;;;;;;;;;;;;;;;23.60;58.51;100957.56;7393066;19;1393;-38
2023/08/19 10:23:05;;;;;;;;;;;;;;;23.63;58.25;100935.63;7395238;19;1236;-38
2023/08/19 10:25:33;;;;;;;;;;;;;;;23.54;58.52;100942.84;7395323;19;1349;-38
2023/08/19 10:28:12;;;;;;;;;;;;;;;23.53;58.92;100948.41;7394188;19;1384;-38
2023/08/19 10:30:41;;;;;;;;;;;;;;;23.46;59.24;100940.13;7393209;19;1390;-38
2023/08/19 10:33:24;;;;;;;;;;;;;;;23.57;58.71;100957.88;7395012;19;1273;-38
2023/08/19 10:36:03;;;;;;;;;;;;;;;23.49;59.13;100949.75;7395613;19;1834;-38
2023/08/19 10:38:42;;;;;;;;;;;;;;;23.44;59.43;100942.13;7393832;19;1845;-38
2023/08/19 10:41:18;;;;;;;;;;;;;;;23.41;59.58;100937.88;7395211;19;1174;-38
2023/08/19 10:43:55;;;;;;;;;;;;;;;23.41;59.69;100932.47;7396000;19;1257;-38
2023/08/19 10:46:26;;;;;;;;;;;;;;;23.57;58.89;100933.59;7394930;19;1114;-38
2023/08/19 10:48:55;;;;;;;;;;;;;;;23.40;59.75;100919.19;7393827;19;1261;-38
2023/08/19 10:51:25;;;;;;;;;;;;;;;23.45;59.92;100924.09;7394789;19;1583;-38
2023/08/19 10:54:07;;;;;;;;;;;;;;;23.46;59.96;100923.06;7394384;19;1566;-38
2023/08/19 10:56:36;;;;;;;;;;;;;;;23.48;59.89;100913.81;7393121;19;1701;-37
2023/08/19 10:59:07;;;;;;;;;;;;;;;23.39;60.29;100926.41;7398616;19;1365;-38
2023/08/19 11:01:35;;;;;;;;;;;;;;;23.50;60.21;100927.16;7402073;19;1392;-38
2023/08/19 11:04:03;;;;;;;;;;;;;;;23.42;60.58;100919.84;7401059;19;1276;-38
2023/08/19 11:06:32;;;;;;;;;;;;;;;23.39;60.70;100918.31;7401550;19;1273;-38
2023/08/19 11:09:00;;;;;;;;;;;;;;;23.54;59.94;100909.63;7400634;19;1856;-38
2023/08/19 11:11:29;;;;;;;;;;;;;;;23.36;60.85;100909.72;7402172;19;1417;-38
2023/08/19 11:13:57;;;;;;;;;;;;;;;23.49;60.34;100917.34;7401227;19;1570;-38
2023/08/19 11:16:31;;;;;;;;;;;;;;;23.52;60.15;100917.88;7399861;19;1271;-38
2023/08/19 11:18:59;;;;;;;;;;;;;;;23.61;59.82;100905.25;7398536;19;1853;-38
2023/08/19 11:21:28;;;;;;;;;;;;;;;23.50;60.30;100913.66;7400689;19;1261;-38
2023/08/19 11:23:56;;;;;;;;;;;;;;;23.49;59.91;100895.75;7399020;19;1352;-38
2023/08/19 11:26:24;;;;;;;;;;;;;;;23.47;60.18;100895.06;7399677;19;1352;-38
2023/08/19 11:28:52;;;;;;;;;;;;;;;23.45;60.35;100911.44;7398927;19;1399;-38
2023/08/19 11:31:22;;;;;;;;;;;;;;;23.48;60.25;100888.69;7399699;19;1389;-38
2023/08/19 11:33:53;;;;;;;;;;;;;;;23.43;60.68;100908.03;7400447;19;1360;-38
2023/08/19 11:36:26;;;;;;;;;;;;;;;23.29;60.75;100906.78;7400320;19;1372;-38
2023/08/19 11:38:56;;;;;;;;;;;;;;;23.60;59.75;100892.78;7398810;19;1818;-38
2023/08/19 11:41:25;;;;;;;;;;;;;;;23.78;59.33;100901.63;7400160;19;1322;-38
2023/08/19 11:43:53;;;;;;;;;;;;;;;23.84;59.14;100883.09;7401576;19;1396;-38
2023/08/19 11:46:21;;;;;;;;;;;;;;;23.82;58.91;100903.00;7399269;19;1062;-38
2023/08/19 11:48:52;;;;;;;;;;;;;;;23.87;58.74;100898.97;7399744;19;1714;-38
2023/08/19 11:51:21;;;;;;;;;;;;;;;23.87;58.77;100905.19;7399738;19;1471;-38
2023/08/19 11:53:51;;;;;;;;;;;;;;;23.87;58.46;100889.00;7400294;19;1315;-38
2023/08/19 11:56:20;;;;;;;;;;;;;;;23.87;58.54;100885.47;7398185;19;1257;-38
2023/08/19 11:58:50;;;;;;;;;;;;;;;23.86;58.31;100889.19;7398082;19;1842;-38
2023/08/19 12:01:18;;;;;;;;;;;;;;;23.88;58.52;100888.00;7399301;19;2003;-38
2023/08/19 12:03:47;;;;;;;;;;;;;;;23.92;57.93;100873.16;7399591;19;1182;-38
2023/08/19 12:06:19;;;;;;;;;;;;;;;23.91;58.30;100873.31;7398649;19;1837;-38
2023/08/19 12:08:48;;;;;;;;;;;;;;;23.78;58.26;100863.00;7397973;19;1414;-38
2023/08/19 12:11:24;;;;;;;;;;;;;;;23.76;58.44;100855.03;7396742;19;1336;-38
2023/08/19 12:13:53;;;;;;;;;;;;;;;23.84;58.00;100873.13;7398752;19;1543;-38
2023/08/19 12:16:21;;;;;;;;;;;;;;;23.85;58.26;100864.00;7399015;19;1381;-38
2023/08/19 12:18:49;;;;;;;;;;;;;;;23.78;58.18;100880.03;7397552;19;1846;-38
2023/08/19 12:21:20;;;;;;;;;;;;;;;23.78;58.21;100863.84;7397998;19;1888;-38
2023/08/19 12:23:48;;;;;;;;;;;;;;;23.85;57.96;100849.66;7398180;19;1494;-38
2023/08/19 12:26:17;;;;;;;;;;;;;;;23.88;57.91;100842.09;7399904;19;1443;-38
2023/08/19 12:28:45;;;;;;;;;;;;;;;23.76;58.00;100855.03;7398795;19;1401;-38
2023/08/19 12:31:13;;;;;;;;;;;;;;;23.73;58.22;100854.50;7398435;19;1205;-39
2023/08/19 12:33:42;;;;;;;;;;;;;;;23.76;57.89;100848.78;7399949;19;1174;-38
2023/08/19 12:36:11;;;;;;;;;;;;;;;23.79;58.09;100846.59;7398502;19;1473;-38
2023/08/19 12:38:41;;;;;;;;;;;;;;;23.78;58.13;100863.00;7398171;19;1845;-38
2023/08/19 12:41:10;;;;;;;;;;;;;;;23.85;58.08;100841.56;7397691;19;1469;-41
2023/08/19 12:43:38;;;;;;;;;;;;;;;23.81;58.25;100855.41;7399038;19;1409;-38
2023/08/19 12:46:06;;;;;;;;;;;;;;;23.79;57.98;100838.50;7397854;19;1397;-38
2023/08/19 12:48:34;;;;;;;;;;;;;;;23.75;58.37;100856.03;7397353;19;1514;-39
2023/08/19 12:51:03;;;;;;;;;;;;;;;23.84;58.02;100846.13;7396754;19;1354;-38
2023/08/19 12:53:31;;;;;;;;;;;;;;;23.74;58.14;100840.00;7397106;19;1330;-38
2023/08/19 12:56:02;;;;;;;;;;;;;;;23.75;58.43;100837.13;7397257;19;1204;-38
2023/08/19 12:58:31;;;;;;;;;;;;;;;23.75;58.53;100842.53;7395506;19;1857;-38